TLV weather

Ben Gurion International Airport
Tel Aviv, Central District, Israel

Public forecast

Using degrees Celsius for public forecast. Weather courtesy of forecast.io.

METAR (pilot weather report)

Retrieved 2019/03/19 18:20 UTC (14 minutes ago):

LLBG 191820Z 35006KT CAVOK 16/12 Q1017 NOSIG

TAF (pilot weather forecast)

Retrieved 2019/03/19 18:00 UTC (34 minutes ago):

TAF LLBG 191708Z 1918/2018 35005KT CAVOK BECMG 1919/1921 VRB03KT 7000 FM192300 VRB03KT 3000 BR BKN005 PROB40 2000/2005 18005KT 0500 FG BKN001 BECMG 2006/2008 34010KT CAVOK TX23/2012Z TN10/2004Z